createdAt,value
2023-05-07T00:00:07.458Z,1010.41
2023-05-07T00:01:07.453Z,1010.41
2023-05-07T00:02:07.433Z,1010.36
2023-05-07T00:03:07.487Z,1010.45
2023-05-07T00:04:07.690Z,1010.45
2023-05-07T00:05:07.557Z,1010.41
2023-05-07T00:06:07.408Z,1010.42
2023-05-07T00:07:07.398Z,1010.40
2023-05-07T00:08:07.381Z,1010.38
2023-05-07T00:09:07.354Z,1010.38
2023-05-07T00:10:07.358Z,1010.37
2023-05-07T00:11:07.368Z,1010.33
2023-05-07T00:12:07.337Z,1010.28
2023-05-07T00:13:07.367Z,1010.33
2023-05-07T00:14:07.321Z,1010.29
2023-05-07T00:15:07.437Z,1010.27
2023-05-07T00:16:07.392Z,1010.31
2023-05-07T00:17:07.293Z,1010.31
2023-05-07T00:18:07.308Z,1010.28
2023-05-07T00:19:07.296Z,1010.28
2023-05-07T00:20:07.232Z,1010.31
2023-05-07T00:21:07.222Z,1010.30
2023-05-07T00:22:07.221Z,1010.34
2023-05-07T00:23:07.198Z,1010.37
2023-05-07T00:24:07.217Z,1010.34
2023-05-07T00:25:07.187Z,1010.32
2023-05-07T00:26:07.170Z,1010.35
2023-05-07T00:27:07.151Z,1010.35
2023-05-07T00:28:07.164Z,1010.34
2023-05-07T00:29:07.147Z,1010.34
2023-05-07T00:30:07.126Z,1010.36
2023-05-07T00:31:07.230Z,1010.35
2023-05-07T00:32:07.228Z,1010.35
2023-05-07T00:33:07.193Z,1010.33
2023-05-07T00:34:07.122Z,1010.36
2023-05-07T00:35:07.069Z,1010.35
2023-05-07T00:36:07.072Z,1010.37
2023-05-07T00:37:07.045Z,1010.40
2023-05-07T00:38:07.073Z,1010.43
2023-05-07T00:39:07.048Z,1010.41
2023-05-07T00:40:07.027Z,1010.41
2023-05-07T00:41:06.999Z,1010.38
2023-05-07T00:42:06.997Z,1010.43
2023-05-07T00:43:06.988Z,1010.39
2023-05-07T00:44:07.032Z,1010.40
2023-05-07T00:45:06.958Z,1010.37
2023-05-07T00:46:06.990Z,1010.40
2023-05-07T00:47:06.966Z,1010.36
2023-05-07T00:48:06.971Z,1010.40
2023-05-07T00:49:06.943Z,1010.36
2023-05-07T00:50:06.918Z,1010.35
2023-05-07T00:51:06.900Z,1010.33
2023-05-07T00:52:06.898Z,1010.34
2023-05-07T00:53:06.882Z,1010.32
2023-05-07T00:54:06.949Z,1010.29
2023-05-07T00:55:06.863Z,1010.31
2023-05-07T00:56:06.840Z,1010.28
2023-05-07T00:57:06.846Z,1010.28
2023-05-07T00:58:06.828Z,1010.28
2023-05-07T00:59:06.858Z,1010.29
2023-05-07T01:00:06.800Z,1010.27
2023-05-07T01:01:06.810Z,1010.27
2023-05-07T01:02:06.784Z,1010.23
2023-05-07T01:03:06.862Z,1010.23
2023-05-07T01:04:06.855Z,1010.21
2023-05-07T01:05:06.751Z,1010.18
2023-05-07T01:06:06.743Z,1010.17
2023-05-07T01:07:06.731Z,1010.16
2023-05-07T01:08:06.705Z,1010.16
2023-05-07T01:09:06.752Z,1010.13
2023-05-07T01:10:06.694Z,1010.12
2023-05-07T01:11:06.689Z,1010.11
2023-05-07T01:12:06.678Z,1010.13
2023-05-07T01:13:06.726Z,1010.11
2023-05-07T01:14:06.668Z,1010.09
2023-05-07T01:15:06.639Z,1010.06
2023-05-07T01:16:06.629Z,1010.03
2023-05-07T01:17:06.645Z,1010.04
2023-05-07T01:18:06.685Z,1010.01
2023-05-07T01:19:06.755Z,1010.01
2023-05-07T01:20:06.591Z,1010.00
2023-05-07T01:21:06.582Z,1010.00
2023-05-07T01:22:06.549Z,1010.01
2023-05-07T01:23:06.542Z,1010.01
2023-05-07T01:24:06.546Z,1009.98
2023-05-07T01:25:06.539Z,1009.97
2023-05-07T01:26:06.535Z,1009.97
2023-05-07T01:27:06.510Z,1009.97
2023-05-07T01:28:06.492Z,1009.92
2023-05-07T01:29:06.512Z,1009.96
2023-05-07T01:30:06.464Z,1009.96
2023-05-07T01:31:06.491Z,1009.96
2023-05-07T01:32:06.454Z,1010.01
2023-05-07T01:33:06.460Z,1010.01
2023-05-07T01:34:06.433Z,1010.02
2023-05-07T01:35:06.547Z,1010.06
2023-05-07T01:36:06.430Z,1010.03
2023-05-07T01:37:06.383Z,1010.03
2023-05-07T01:38:06.403Z,1010.06
2023-05-07T01:39:06.387Z,1010.07
2023-05-07T01:40:06.360Z,1010.03
2023-05-07T01:41:06.350Z,1010.02
2023-05-07T01:42:06.338Z,1010.05
2023-05-07T01:43:06.320Z,1010.04
2023-05-07T01:44:06.345Z,1010.06
2023-05-07T01:45:06.293Z,1010.06
2023-05-07T01:46:06.308Z,1010.06
2023-05-07T01:47:06.294Z,1010.02
2023-05-07T01:48:06.343Z,1010.06
2023-05-07T01:49:06.274Z,1010.05
2023-05-07T01:50:06.233Z,1010.04
2023-05-07T01:51:06.324Z,1010.04
2023-05-07T01:52:06.216Z,1010.01
2023-05-07T01:53:06.205Z,1010.02
2023-05-07T01:54:06.200Z,1010.00
2023-05-07T01:55:06.193Z,1009.99
2023-05-07T01:56:06.170Z,1010.00
2023-05-07T01:57:06.174Z,1009.96
2023-05-07T01:58:06.150Z,1009.99
2023-05-07T01:59:06.177Z,1009.95
2023-05-07T02:00:06.144Z,1009.98
2023-05-07T02:01:06.114Z,1010.01
2023-05-07T02:02:06.162Z,1010.00
2023-05-07T02:03:06.196Z,1010.01
2023-05-07T02:04:06.139Z,1009.98
2023-05-07T02:05:06.097Z,1009.99
2023-05-07T02:06:06.082Z,1009.96
2023-05-07T02:07:06.143Z,1009.98
2023-05-07T02:08:06.038Z,1009.94
2023-05-07T02:09:06.042Z,1009.92
2023-05-07T02:10:06.055Z,1009.91
2023-05-07T02:11:06.021Z,1009.91
2023-05-07T02:12:06.001Z,1009.91
2023-05-07T02:13:06.024Z,1009.91
2023-05-07T02:14:06.439Z,1009.90
2023-05-07T02:15:05.994Z,1009.93
2023-05-07T02:16:06.039Z,1009.92
2023-05-07T02:17:05.939Z,1009.95
2023-05-07T02:18:06.030Z,1009.90
2023-05-07T02:19:05.963Z,1009.90
2023-05-07T02:20:05.922Z,1009.92
2023-05-07T02:21:05.901Z,1009.91
2023-05-07T02:22:05.892Z,1009.92
2023-05-07T02:23:05.892Z,1009.91
2023-05-07T02:24:05.888Z,1009.90
2023-05-07T02:25:05.873Z,1009.93
2023-05-07T02:26:05.837Z,1009.92
2023-05-07T02:27:05.844Z,1009.95
2023-05-07T02:28:05.845Z,1009.98
2023-05-07T02:29:05.840Z,1010.00
2023-05-07T02:30:05.811Z,1010.01
2023-05-07T02:31:05.815Z,1010.01
2023-05-07T02:32:05.843Z,1009.99
2023-05-07T02:33:05.865Z,1009.97
2023-05-07T02:34:05.765Z,1009.98
2023-05-07T02:35:05.739Z,1010.00
2023-05-07T02:36:05.760Z,1009.98
2023-05-07T02:37:05.737Z,1010.00
2023-05-07T02:38:05.719Z,1010.00
2023-05-07T02:39:05.808Z,1009.99
2023-05-07T02:40:05.694Z,1010.04
2023-05-07T02:41:05.723Z,1010.05
2023-05-07T02:42:05.659Z,1010.09
2023-05-07T02:43:05.661Z,1010.10
2023-05-07T02:44:05.651Z,1010.09
2023-05-07T02:45:05.647Z,1010.07
2023-05-07T02:46:05.682Z,1010.09
2023-05-07T02:47:05.641Z,1010.08
2023-05-07T02:48:05.611Z,1010.10
2023-05-07T02:49:05.592Z,1010.07
2023-05-07T02:50:05.568Z,1010.09
2023-05-07T02:51:05.597Z,1010.09
2023-05-07T02:52:05.568Z,1010.08
2023-05-07T02:53:05.555Z,1010.12
2023-05-07T02:54:05.538Z,1010.11
2023-05-07T02:55:05.560Z,1010.12
2023-05-07T02:56:05.503Z,1010.11
2023-05-07T02:57:05.518Z,1010.11
2023-05-07T02:58:05.508Z,1010.11
2023-05-07T02:59:05.511Z,1010.15
2023-05-07T03:00:05.485Z,1010.12
2023-05-07T03:01:05.466Z,1010.17
2023-05-07T03:02:05.439Z,1010.15
2023-05-07T03:03:05.464Z,1010.14
2023-05-07T03:04:05.528Z,1010.11
2023-05-07T03:05:05.437Z,1010.09
2023-05-07T03:06:05.398Z,1010.10
2023-05-07T03:07:05.402Z,1010.09
2023-05-07T03:08:05.370Z,1010.07
2023-05-07T03:09:05.406Z,1010.04
2023-05-07T03:10:05.360Z,1010.05
2023-05-07T03:11:05.361Z,1010.04
2023-05-07T03:12:05.344Z,1010.08
2023-05-07T03:13:05.385Z,1010.05
2023-05-07T03:14:05.302Z,1010.03
2023-05-07T03:15:05.333Z,1010.03
2023-05-07T03:16:05.321Z,1009.99
2023-05-07T03:17:05.274Z,1010.05
2023-05-07T03:18:05.353Z,1010.00
2023-05-07T03:19:05.337Z,1009.99
2023-05-07T03:20:05.337Z,1010.02
2023-05-07T03:21:05.397Z,1009.98
2023-05-07T03:22:05.228Z,1009.94
2023-05-07T03:23:05.215Z,1009.94
2023-05-07T03:24:05.204Z,1009.96
2023-05-07T03:25:05.220Z,1009.97
2023-05-07T03:26:05.182Z,1009.94
2023-05-07T03:27:05.269Z,1009.99
2023-05-07T03:28:05.157Z,1009.96
2023-05-07T03:29:05.158Z,1009.97
2023-05-07T03:30:05.122Z,1009.98
2023-05-07T03:31:05.193Z,1009.97
2023-05-07T03:32:05.115Z,1009.94
2023-05-07T03:33:05.164Z,1009.94
2023-05-07T03:34:05.101Z,1009.94
2023-05-07T03:35:05.068Z,1009.91
2023-05-07T03:36:05.062Z,1009.94
2023-05-07T03:37:05.060Z,1009.85
2023-05-07T03:38:05.042Z,1009.88
2023-05-07T03:39:05.028Z,1009.89
2023-05-07T03:40:05.024Z,1009.87
2023-05-07T03:41:05.042Z,1009.90
2023-05-07T03:42:04.986Z,1009.88
2023-05-07T03:43:05.147Z,1009.88
2023-05-07T03:44:04.968Z,1009.86
2023-05-07T03:45:04.971Z,1009.86
2023-05-07T03:46:04.963Z,1009.89
2023-05-07T03:47:04.969Z,1009.90
2023-05-07T03:48:05.019Z,1009.88
2023-05-07T03:49:04.921Z,1009.89
2023-05-07T03:50:04.912Z,1009.92
2023-05-07T03:51:04.901Z,1009.88
2023-05-07T03:52:04.910Z,1009.89
2023-05-07T03:53:04.882Z,1009.89
2023-05-07T03:54:04.891Z,1009.90
2023-05-07T03:55:04.855Z,1009.88
2023-05-07T03:56:04.836Z,1009.91
2023-05-07T03:57:04.860Z,1009.90
2023-05-07T03:58:04.809Z,1009.89
2023-05-07T03:59:04.930Z,1009.92
2023-05-07T04:00:04.827Z,1009.90
2023-05-07T04:01:04.841Z,1009.97
2023-05-07T04:02:05.732Z,1009.97
2023-05-07T04:03:04.893Z,1009.98
2023-05-07T04:04:04.975Z,1009.99
2023-05-07T04:05:04.750Z,1010.01
2023-05-07T04:06:04.743Z,1010.02
2023-05-07T04:07:04.735Z,1010.02
2023-05-07T04:08:04.710Z,1009.98
2023-05-07T04:09:04.716Z,1009.99
2023-05-07T04:10:04.689Z,1010.02
2023-05-07T04:11:04.674Z,1010.02
2023-05-07T04:12:04.666Z,1010.04
2023-05-07T04:13:04.723Z,1010.07
2023-05-07T04:14:04.656Z,1010.11
2023-05-07T04:15:04.735Z,1010.11
2023-05-07T04:16:04.628Z,1010.16
2023-05-07T04:17:04.594Z,1010.14
2023-05-07T04:18:04.615Z,1010.15
2023-05-07T04:19:04.590Z,1010.19
2023-05-07T04:20:04.578Z,1010.18
2023-05-07T04:21:04.557Z,1010.18
2023-05-07T04:22:04.553Z,1010.18
2023-05-07T04:23:04.530Z,1010.17
2023-05-07T04:24:04.518Z,1010.18
2023-05-07T04:25:04.520Z,1010.15
2023-05-07T04:26:04.504Z,1010.16
2023-05-07T04:27:04.508Z,1010.12
2023-05-07T04:28:04.480Z,1010.13
2023-05-07T04:29:04.491Z,1010.09
2023-05-07T04:30:04.452Z,1010.08
2023-05-07T04:31:04.638Z,1010.07
2023-05-07T04:32:04.492Z,1010.10
2023-05-07T04:33:04.467Z,1010.05
2023-05-07T04:34:04.445Z,1010.06
2023-05-07T04:35:04.407Z,1010.09
2023-05-07T04:36:04.388Z,1010.10
2023-05-07T04:37:04.370Z,1010.11
2023-05-07T04:38:04.369Z,1010.11
2023-05-07T04:39:04.385Z,1010.12
2023-05-07T04:40:04.345Z,1010.14
2023-05-07T04:41:04.344Z,1010.16
2023-05-07T04:42:04.306Z,1010.16
2023-05-07T04:43:04.313Z,1010.13
2023-05-07T04:44:04.289Z,1010.13
2023-05-07T04:45:04.305Z,1010.13
2023-05-07T04:46:04.284Z,1010.09
2023-05-07T04:47:04.365Z,1010.09
2023-05-07T04:48:04.320Z,1010.08
2023-05-07T04:49:04.254Z,1010.09
2023-05-07T04:50:04.247Z,1010.08
2023-05-07T04:51:04.221Z,1010.11
2023-05-07T04:52:04.195Z,1010.10
2023-05-07T04:53:04.186Z,1010.09
2023-05-07T04:54:04.182Z,1010.10
2023-05-07T04:55:04.184Z,1010.09
2023-05-07T04:56:04.201Z,1010.11
2023-05-07T04:57:04.143Z,1010.11
2023-05-07T04:58:04.132Z,1010.07
2023-05-07T04:59:04.127Z,1010.07
2023-05-07T05:00:04.113Z,1010.09
2023-05-07T05:01:04.141Z,1010.07
2023-05-07T05:02:04.080Z,1010.09
2023-05-07T05:03:04.298Z,1010.09
2023-05-07T05:04:04.136Z,1010.12
2023-05-07T05:05:04.055Z,1010.10
2023-05-07T05:06:04.070Z,1010.11
2023-05-07T05:07:04.032Z,1010.12
2023-05-07T05:08:04.030Z,1010.09
2023-05-07T05:09:04.014Z,1010.12
2023-05-07T05:10:04.007Z,1010.09
2023-05-07T05:11:03.991Z,1010.09
2023-05-07T05:12:04.008Z,1010.10
2023-05-07T05:13:03.990Z,1010.11
2023-05-07T05:14:03.950Z,1010.08
2023-05-07T05:15:03.948Z,1010.11
2023-05-07T05:16:03.958Z,1010.10
2023-05-07T05:17:03.943Z,1010.15
2023-05-07T05:18:03.935Z,1010.12
2023-05-07T05:19:03.939Z,1010.15
2023-05-07T05:20:03.903Z,1010.16
2023-05-07T05:21:03.890Z,1010.20
2023-05-07T05:22:03.876Z,1010.19
2023-05-07T05:23:03.848Z,1010.21
2023-05-07T05:24:03.870Z,1010.19
2023-05-07T05:25:03.839Z,1010.21
2023-05-07T05:26:03.837Z,1010.20
2023-05-07T05:27:03.821Z,1010.25
2023-05-07T05:28:03.843Z,1010.24
2023-05-07T05:29:03.800Z,1010.21
2023-05-07T05:30:03.779Z,1010.25
2023-05-07T05:31:03.792Z,1010.27
2023-05-07T05:32:03.770Z,1010.28
2023-05-07T05:33:03.876Z,1010.30
2023-05-07T05:34:03.730Z,1010.32
2023-05-07T05:35:03.826Z,1010.32
2023-05-07T05:36:03.716Z,1010.32
2023-05-07T05:37:03.692Z,1010.32
2023-05-07T05:38:03.709Z,1010.27
2023-05-07T05:39:03.704Z,1010.27
2023-05-07T05:40:03.660Z,1010.28
2023-05-07T05:41:03.647Z,1010.25
2023-05-07T05:42:03.644Z,1010.24
2023-05-07T05:43:03.641Z,1010.23
2023-05-07T05:44:03.658Z,1010.23
2023-05-07T05:45:03.673Z,1010.26
2023-05-07T05:46:03.653Z,1010.24
2023-05-07T05:47:03.580Z,1010.21
2023-05-07T05:48:03.623Z,1010.30
2023-05-07T05:49:03.608Z,1010.27
2023-05-07T05:50:03.576Z,1010.26
2023-05-07T05:51:03.646Z,1010.29
2023-05-07T05:52:03.528Z,1010.26
2023-05-07T05:53:03.524Z,1010.29
2023-05-07T05:54:03.520Z,1010.26
2023-05-07T05:55:03.533Z,1010.26
2023-05-07T05:56:03.488Z,1010.29
2023-05-07T05:57:03.485Z,1010.30
2023-05-07T05:58:03.477Z,1010.27
2023-05-07T05:59:03.488Z,1010.28
2023-05-07T06:00:03.486Z,1010.30
2023-05-07T06:01:03.424Z,1010.29
2023-05-07T06:02:03.436Z,1010.30
2023-05-07T06:03:03.448Z,1010.27
2023-05-07T06:04:03.400Z,1010.31
2023-05-07T06:05:03.478Z,1010.27
2023-05-07T06:06:03.400Z,1010.28
2023-05-07T06:07:03.536Z,1010.24
2023-05-07T06:08:03.358Z,1010.25
2023-05-07T06:09:03.353Z,1010.29
2023-05-07T06:10:03.339Z,1010.26
2023-05-07T06:11:03.308Z,1010.23
2023-05-07T06:12:03.317Z,1010.26
2023-05-07T06:13:03.364Z,1010.26
2023-05-07T06:14:03.281Z,1010.26
2023-05-07T06:15:03.283Z,1010.24
2023-05-07T06:16:03.268Z,1010.24
2023-05-07T06:17:03.350Z,1010.26
2023-05-07T06:18:03.253Z,1010.30
2023-05-07T06:19:03.238Z,1010.31
2023-05-07T06:20:03.268Z,1010.33
2023-05-07T06:21:03.209Z,1010.32
2023-05-07T06:22:03.191Z,1010.27
2023-05-07T06:23:03.194Z,1010.34
2023-05-07T06:24:03.178Z,1010.34
2023-05-07T06:25:04.161Z,1010.37
2023-05-07T06:26:03.176Z,1010.40
2023-05-07T06:27:03.144Z,1010.39
2023-05-07T06:28:03.146Z,1010.41
2023-05-07T06:29:03.125Z,1010.44
2023-05-07T06:30:03.109Z,1010.41
2023-05-07T06:31:03.105Z,1010.46
2023-05-07T06:32:03.111Z,1010.42
2023-05-07T06:33:03.134Z,1010.37
2023-05-07T06:34:03.082Z,1010.44
2023-05-07T06:35:03.050Z,1010.42
2023-05-07T06:36:03.059Z,1010.43
2023-05-07T06:37:03.057Z,1010.47
2023-05-07T06:38:03.051Z,1010.49
2023-05-07T06:39:03.316Z,1010.52
2023-05-07T06:40:03.005Z,1010.47
2023-05-07T06:41:03.009Z,1010.50
2023-05-07T06:42:02.988Z,1010.52
2023-05-07T06:43:02.968Z,1010.50
2023-05-07T06:44:02.961Z,1010.52
2023-05-07T06:45:02.954Z,1010.53
2023-05-07T06:46:02.998Z,1010.52
2023-05-07T06:47:02.924Z,1010.57
2023-05-07T06:48:02.927Z,1010.56
2023-05-07T06:49:02.885Z,1010.55
2023-05-07T06:50:02.880Z,1010.48
2023-05-07T06:51:02.875Z,1010.47
2023-05-07T06:52:02.880Z,1010.51
2023-05-07T06:53:02.850Z,1010.49
2023-05-07T06:54:02.894Z,1010.45
2023-05-07T06:55:02.861Z,1010.46
2023-05-07T06:56:02.823Z,1010.47
2023-05-07T06:57:02.818Z,1010.43
2023-05-07T06:58:02.786Z,1010.43
2023-05-07T06:59:02.771Z,1010.43
2023-05-07T07:00:02.771Z,1010.43
2023-05-07T07:01:02.818Z,1010.42
2023-05-07T07:02:02.878Z,1010.44
2023-05-07T07:03:02.755Z,1010.43
2023-05-07T07:04:02.736Z,1010.42
2023-05-07T07:05:02.816Z,1010.47
2023-05-07T07:06:02.689Z,1010.50
2023-05-07T07:07:02.697Z,1010.46
2023-05-07T07:08:02.680Z,1010.50
2023-05-07T07:09:02.662Z,1010.50
2023-05-07T07:10:02.647Z,1010.50
2023-05-07T07:11:02.792Z,1010.49
2023-05-07T07:12:02.648Z,1010.53
2023-05-07T07:13:02.699Z,1010.54
2023-05-07T07:14:02.644Z,1010.56
2023-05-07T07:15:02.589Z,1010.52
2023-05-07T07:16:02.616Z,1010.56
2023-05-07T07:17:02.580Z,1010.58
2023-05-07T07:18:02.625Z,1010.61
2023-05-07T07:19:02.559Z,1010.62
2023-05-07T07:20:02.565Z,1010.63
2023-05-07T07:21:02.542Z,1010.61
2023-05-07T07:22:02.519Z,1010.61
2023-05-07T07:23:02.527Z,1010.60
2023-05-07T07:24:02.485Z,1010.59
2023-05-07T07:25:02.478Z,1010.59
2023-05-07T07:26:02.469Z,1010.62
2023-05-07T07:27:02.672Z,1010.61
2023-05-07T07:28:02.457Z,1010.62
2023-05-07T07:29:02.449Z,1010.63
2023-05-07T07:30:02.421Z,1010.61
2023-05-07T07:31:02.438Z,1010.61
2023-05-07T07:32:02.466Z,1010.64
2023-05-07T07:33:02.411Z,1010.63
2023-05-07T07:34:02.392Z,1010.62
2023-05-07T07:35:02.406Z,1010.68
2023-05-07T07:36:02.352Z,1010.65
2023-05-07T07:37:02.349Z,1010.65
2023-05-07T07:38:02.353Z,1010.64
2023-05-07T07:39:02.332Z,1010.64
2023-05-07T07:40:02.349Z,1010.67
2023-05-07T07:41:02.307Z,1010.67
2023-05-07T07:42:02.309Z,1010.66
2023-05-07T07:43:02.392Z,1010.63
2023-05-07T07:44:02.268Z,1010.63
2023-05-07T07:45:02.254Z,1010.63
2023-05-07T07:46:02.286Z,1010.65
2023-05-07T07:47:02.412Z,1010.63
2023-05-07T07:48:02.260Z,1010.66
2023-05-07T07:49:02.222Z,1010.68
2023-05-07T07:50:02.218Z,1010.71
2023-05-07T07:51:02.193Z,1010.71
2023-05-07T07:52:02.191Z,1010.73
2023-05-07T07:53:02.207Z,1010.72
2023-05-07T07:54:02.152Z,1010.72
2023-05-07T07:55:02.142Z,1010.70
2023-05-07T07:56:03.617Z,1010.74
2023-05-07T07:57:02.149Z,1010.74
2023-05-07T07:58:02.124Z,1010.77
2023-05-07T07:59:02.242Z,1010.67
2023-05-07T08:00:02.136Z,1010.73
2023-05-07T08:01:02.075Z,1010.68
2023-05-07T08:02:02.123Z,1010.67
2023-05-07T08:03:02.314Z,1010.67
2023-05-07T08:04:02.166Z,1010.71
2023-05-07T08:05:02.027Z,1010.75
2023-05-07T08:06:02.053Z,1010.72
2023-05-07T08:07:02.007Z,1010.75
2023-05-07T08:08:01.996Z,1010.79
2023-05-07T08:09:01.982Z,1010.75
2023-05-07T08:10:01.980Z,1010.72
2023-05-07T08:11:01.988Z,1010.77
2023-05-07T08:12:01.960Z,1010.77
2023-05-07T08:13:02.012Z,1010.75
2023-05-07T08:14:01.938Z,1010.76
2023-05-07T08:15:02.009Z,1010.77
2023-05-07T08:16:01.943Z,1010.73
2023-05-07T08:17:01.924Z,1010.75
2023-05-07T08:18:02.009Z,1010.74
2023-05-07T08:19:01.874Z,1010.75
2023-05-07T08:20:01.929Z,1010.73
2023-05-07T08:21:01.874Z,1010.73
2023-05-07T08:22:01.863Z,1010.73
2023-05-07T08:23:01.864Z,1010.75
2023-05-07T08:24:01.827Z,1010.74
2023-05-07T08:25:01.827Z,1010.74
2023-05-07T08:26:01.840Z,1010.73
2023-05-07T08:27:01.807Z,1010.75
2023-05-07T08:28:01.793Z,1010.78
2023-05-07T08:29:01.772Z,1010.78
2023-05-07T08:30:01.766Z,1010.78
2023-05-07T08:31:01.892Z,1010.78
2023-05-07T08:32:01.755Z,1010.78
2023-05-07T08:33:01.789Z,1010.78
2023-05-07T08:34:01.732Z,1010.84
2023-05-07T08:35:01.711Z,1010.78
2023-05-07T08:36:01.698Z,1010.86
2023-05-07T08:37:01.694Z,1010.83
2023-05-07T08:38:01.680Z,1010.83
2023-05-07T08:39:01.686Z,1010.81
2023-05-07T08:40:02.550Z,1010.82
2023-05-07T08:41:01.642Z,1010.79
2023-05-07T08:42:01.766Z,1010.78
2023-05-07T08:43:01.628Z,1010.80
2023-05-07T08:44:01.618Z,1010.77
2023-05-07T08:45:01.595Z,1010.79
2023-05-07T08:46:01.715Z,1010.80
2023-05-07T08:47:01.707Z,1010.75
2023-05-07T08:48:01.632Z,1010.77
2023-05-07T08:49:01.557Z,1010.79
2023-05-07T08:50:01.564Z,1010.74
2023-05-07T08:51:01.522Z,1010.78
2023-05-07T08:52:01.528Z,1010.77
2023-05-07T08:53:01.502Z,1010.77
2023-05-07T08:54:01.500Z,1010.78
2023-05-07T08:55:01.480Z,1010.81
2023-05-07T08:56:01.474Z,1010.78
2023-05-07T08:57:01.474Z,1010.76
2023-05-07T08:58:01.438Z,1010.73
2023-05-07T08:59:01.463Z,1010.76
2023-05-07T09:00:01.411Z,1010.77
2023-05-07T09:01:01.395Z,1010.65
2023-05-07T09:02:01.453Z,1010.64
2023-05-07T09:03:01.793Z,1010.63
2023-05-07T09:04:01.523Z,1010.65
2023-05-07T09:05:01.365Z,1010.66
2023-05-07T09:06:01.357Z,1010.69
2023-05-07T09:07:01.367Z,1010.68
2023-05-07T09:08:01.326Z,1010.68
2023-05-07T09:09:01.333Z,1010.71
2023-05-07T09:10:01.354Z,1010.69
2023-05-07T09:11:01.286Z,1010.74
2023-05-07T09:12:01.295Z,1010.73
2023-05-07T09:13:01.304Z,1010.73
2023-05-07T09:14:01.271Z,1010.75
2023-05-07T09:15:01.283Z,1010.73
2023-05-07T09:16:01.321Z,1010.70
2023-05-07T09:17:01.248Z,1010.67
2023-05-07T09:18:01.299Z,1010.66
2023-05-07T09:19:01.296Z,1010.74
2023-05-07T09:20:01.228Z,1010.69
2023-05-07T09:21:01.189Z,1010.70
2023-05-07T09:22:01.177Z,1010.70
2023-05-07T09:23:01.177Z,1010.72
2023-05-07T09:24:01.162Z,1010.73
2023-05-07T09:25:01.136Z,1010.72
2023-05-07T09:26:01.158Z,1010.70
2023-05-07T09:27:01.126Z,1010.70
2023-05-07T09:28:01.126Z,1010.70
2023-05-07T09:29:01.105Z,1010.72
2023-05-07T09:30:01.090Z,1010.69
2023-05-07T09:31:01.104Z,1010.69
2023-05-07T09:32:01.074Z,1010.67
2023-05-07T09:33:01.117Z,1010.72
2023-05-07T09:34:01.062Z,1010.67
2023-05-07T09:35:01.049Z,1010.70
2023-05-07T09:36:01.032Z,1010.66
2023-05-07T09:37:01.043Z,1010.71
2023-05-07T09:38:03.648Z,1010.70
2023-05-07T09:39:00.996Z,1010.80
2023-05-07T09:40:00.969Z,1010.77
2023-05-07T09:41:00.977Z,1010.82
2023-05-07T09:42:00.949Z,1010.76
2023-05-07T09:43:00.957Z,1010.70
2023-05-07T09:44:00.960Z,1010.73
2023-05-07T09:45:00.926Z,1010.75
2023-05-07T09:46:00.967Z,1010.70
2023-05-07T09:47:00.922Z,1010.74
2023-05-07T09:48:00.951Z,1010.68
2023-05-07T09:49:00.892Z,1010.69
2023-05-07T09:50:00.893Z,1010.72
2023-05-07T09:51:00.879Z,1010.68
2023-05-07T09:52:00.842Z,1010.67
2023-05-07T09:53:00.833Z,1010.74
2023-05-07T09:54:00.823Z,1010.70
2023-05-07T09:55:00.836Z,1010.65
2023-05-07T09:56:02.435Z,1010.64
2023-05-07T09:57:00.795Z,1010.63
2023-05-07T09:58:00.813Z,1010.67
2023-05-07T09:59:00.769Z,1010.63
2023-05-07T10:00:00.761Z,1010.67
2023-05-07T10:01:00.795Z,1010.60
2023-05-07T10:02:02.165Z,1010.59
2023-05-07T10:03:00.811Z,1010.57
2023-05-07T10:04:00.798Z,1010.62
2023-05-07T10:05:00.702Z,1010.61
2023-05-07T10:06:00.709Z,1010.64
2023-05-07T10:07:00.786Z,1010.64
2023-05-07T10:08:01.654Z,1010.61
2023-05-07T10:09:00.701Z,1010.64
2023-05-07T10:10:00.697Z,1010.57
2023-05-07T10:11:00.679Z,1010.61
2023-05-07T10:12:00.671Z,1010.63
2023-05-07T10:13:00.666Z,1010.59
2023-05-07T10:14:02.750Z,1010.66
2023-05-07T10:15:00.605Z,1010.63
2023-05-07T10:16:00.596Z,1010.62
2023-05-07T10:17:00.616Z,1010.56
2023-05-07T10:18:00.645Z,1010.56
2023-05-07T10:19:00.572Z,1010.56
2023-05-07T10:20:01.644Z,1010.54
2023-05-07T10:21:00.545Z,1010.62
2023-05-07T10:22:00.535Z,1010.54
2023-05-07T10:23:00.676Z,1010.56
2023-05-07T10:24:00.502Z,1010.56
2023-05-07T10:25:00.510Z,1010.60
2023-05-07T10:26:01.220Z,1010.63
2023-05-07T10:27:00.485Z,1010.66
2023-05-07T10:28:00.460Z,1010.63
2023-05-07T10:29:00.442Z,1010.62
2023-05-07T10:30:00.452Z,1010.63
2023-05-07T10:31:00.492Z,1010.64
2023-05-07T10:32:00.404Z,1010.60
2023-05-07T10:33:00.513Z,1010.60
2023-05-07T10:34:00.406Z,1010.65
2023-05-07T10:35:00.411Z,1010.62
2023-05-07T10:36:00.395Z,1010.57
2023-05-07T10:37:00.367Z,1010.55
2023-05-07T10:38:00.352Z,1010.62
2023-05-07T10:39:00.480Z,1010.63
2023-05-07T10:40:00.360Z,1010.61
2023-05-07T10:41:00.331Z,1010.61
2023-05-07T10:42:00.297Z,1010.64
2023-05-07T10:43:00.310Z,1010.61
2023-05-07T10:44:00.287Z,1010.62
2023-05-07T10:45:00.282Z,1010.56
2023-05-07T10:46:00.358Z,1010.55
2023-05-07T10:47:00.261Z,1010.55
2023-05-07T10:48:00.318Z,1010.57
2023-05-07T10:49:00.239Z,1010.60
2023-05-07T10:50:00.447Z,1010.58
2023-05-07T10:51:00.220Z,1010.60
2023-05-07T10:52:00.217Z,1010.60
2023-05-07T10:53:00.189Z,1010.58
2023-05-07T10:54:00.167Z,1010.61
2023-05-07T10:55:00.254Z,1010.60
2023-05-07T10:56:00.171Z,1010.55
2023-05-07T10:57:00.161Z,1010.56
2023-05-07T10:58:00.164Z,1010.55
2023-05-07T10:59:00.186Z,1010.52
2023-05-07T11:00:00.782Z,1010.49
2023-05-07T11:01:00.401Z,1010.47
2023-05-07T11:02:00.799Z,1010.47
2023-05-07T11:03:00.783Z,1010.47
2023-05-07T11:04:00.077Z,1010.47
2023-05-07T11:05:00.775Z,1010.46
2023-05-07T11:06:00.312Z,1010.43
2023-05-07T11:07:00.030Z,1010.47
2023-05-07T11:08:00.034Z,1010.44
2023-05-07T11:09:00.008Z,1010.43
2023-05-07T11:10:00.008Z,1010.47
2023-05-07T11:11:00.131Z,1010.45
2023-05-07T11:11:59.997Z,1010.42
2023-05-07T11:13:00.051Z,1010.42
2023-05-07T11:14:00.051Z,1010.45
2023-05-07T11:14:59.944Z,1010.42
2023-05-07T11:15:59.970Z,1010.41
2023-05-07T11:16:59.941Z,1010.37
2023-05-07T11:18:00.021Z,1010.42
2023-05-07T11:18:59.927Z,1010.41
2023-05-07T11:19:59.889Z,1010.44
2023-05-07T11:20:59.895Z,1010.40
2023-05-07T11:21:59.881Z,1010.45
2023-05-07T11:22:59.890Z,1010.40
2023-05-07T11:23:59.867Z,1010.35
2023-05-07T11:24:59.834Z,1010.36
2023-05-07T11:25:59.831Z,1010.37
2023-05-07T11:26:59.921Z,1010.35
2023-05-07T11:27:59.811Z,1010.36
2023-05-07T11:28:59.822Z,1010.35
2023-05-07T11:29:59.772Z,1010.35
2023-05-07T11:30:59.767Z,1010.33
2023-05-07T11:31:59.814Z,1010.33
2023-05-07T11:32:59.764Z,1010.35
2023-05-07T11:33:59.756Z,1010.30
2023-05-07T11:34:59.736Z,1010.34
2023-05-07T11:35:59.725Z,1010.35
2023-05-07T11:36:59.708Z,1010.34
2023-05-07T11:37:59.692Z,1010.29
2023-05-07T11:38:59.754Z,1010.33
2023-05-07T11:39:59.684Z,1010.31
2023-05-07T11:40:59.671Z,1010.32
2023-05-07T11:41:59.658Z,1010.32
2023-05-07T11:42:59.730Z,1010.32
2023-05-07T11:43:59.658Z,1010.29
2023-05-07T11:44:59.611Z,1010.32
2023-05-07T11:45:59.650Z,1010.30
2023-05-07T11:47:00.853Z,1010.29
2023-05-07T11:47:59.618Z,1010.31
2023-05-07T11:48:59.594Z,1010.33
2023-05-07T11:49:59.556Z,1010.32
2023-05-07T11:50:59.553Z,1010.27
2023-05-07T11:51:59.555Z,1010.30
2023-05-07T11:52:59.540Z,1010.32
2023-05-07T11:53:59.530Z,1010.31
2023-05-07T11:54:59.528Z,1010.33
2023-05-07T11:55:59.506Z,1010.33
2023-05-07T11:56:59.497Z,1010.37
2023-05-07T11:57:59.466Z,1010.35
2023-05-07T11:58:59.517Z,1010.34
2023-05-07T11:59:59.473Z,1010.35
2023-05-07T12:00:59.641Z,1010.34
2023-05-07T12:01:59.846Z,1010.35
2023-05-07T12:02:59.490Z,1010.34
2023-05-07T12:03:59.545Z,1010.32
2023-05-07T12:04:59.397Z,1010.28